Time;durP1;ratioP1;P1;durP2;ratioP2;P2;SDS_P1;SDS_P2;PMS_P1;PMS_P2;Temp;Humidity;BMP_temperature;BMP_pressure;BME280_temperature;BME280_humidity;BME280_pressure;Samples;Min_cycle;Max_cycle;Signal;HPM_P1;HPM_P2
2022/08/24 00:00:33;;;;;;;67.87;37.28;;;;;;;18.99;100.00;100389.02;2160725;80;21042;-70
2022/08/24 00:03:38;;;;;;;68.80;38.88;;;;;;;18.99;100.00;100391.71;2167406;80;20985;-71
2022/08/24 00:06:39;;;;;;;66.42;36.15;;;;;;;18.99;100.00;100383.13;2148406;80;21014;-72
2022/08/24 00:09:41;;;;;;;67.20;39.05;;;;;;;19.01;100.00;100390.45;2150943;80;21014;-70
2022/08/24 00:12:42;;;;;;;67.58;37.65;;;;;;;19.03;100.00;100383.50;2148471;80;21051;-70
2022/08/24 00:15:44;;;;;;;83.70;38.67;;;;;;;19.03;100.00;100384.84;2156254;80;21429;-71
2022/08/24 00:18:47;;;;;;;71.53;38.58;;;;;;;19.02;100.00;100382.69;2148211;80;21042;-70
2022/08/24 00:21:48;;;;;;;86.80;40.12;;;;;;;19.02;100.00;100389.94;2160827;80;21047;-71
2022/08/24 00:24:49;;;;;;;73.30;39.90;;;;;;;19.00;100.00;100393.34;2161048;80;20994;-71
2022/08/24 00:27:51;;;;;;;71.95;39.45;;;;;;;18.99;100.00;100390.37;2162131;80;22308;-70
2022/08/24 00:30:53;;;;;;;79.50;39.30;;;;;;;18.99;100.00;100384.47;2166361;80;21083;-70
2022/08/24 00:33:55;;;;;;;87.97;43.13;;;;;;;18.99;100.00;100389.02;2154003;80;20986;-70
2022/08/24 00:36:56;;;;;;;81.75;40.35;;;;;;;18.99;100.00;100387.67;2160343;80;21026;-71
2022/08/24 00:39:58;;;;;;;74.05;39.42;;;;;;;18.99;100.00;100378.27;2158860;80;21528;-71
2022/08/24 00:43:02;;;;;;;73.12;39.30;;;;;;;18.98;100.00;100377.45;2157132;80;21006;-70
2022/08/24 00:46:45;;;;;;;80.50;40.70;;;;;;;18.99;100.00;100374.23;2152058;80;21070;-72
2022/08/24 00:49:54;;;;;;;77.82;40.40;;;;;;;18.98;100.00;100374.76;2160217;80;21556;-72
2022/08/24 00:53:00;;;;;;;78.15;39.35;;;;;;;18.98;100.00;100368.04;2153516;80;21094;-71
2022/08/24 00:56:07;;;;;;;63.83;38.60;;;;;;;18.99;100.00;100363.48;2166071;80;21833;-73
2022/08/24 00:59:21;;;;;;;78.07;37.38;;;;;;;18.97;100.00;100353.45;2131090;80;21467;-71
2022/08/24 01:02:30;;;;;;;62.70;38.30;;;;;;;18.97;100.00;100359.64;2139081;80;21535;-71
2022/08/24 01:05:34;;;;;;;100.33;39.67;;;;;;;18.97;100.00;100354.80;2143465;80;21477;-71
2022/08/24 01:08:35;;;;;;;56.68;36.88;;;;;;;18.97;100.00;100352.11;2131349;80;21020;-72
2022/08/24 01:11:37;;;;;;;67.62;38.67;;;;;;;18.96;100.00;100350.47;2156247;80;20954;-71
2022/08/24 01:14:38;;;;;;;110.70;39.92;;;;;;;18.97;100.00;100350.77;2163011;80;20993;-73
2022/08/24 01:21:22;;;;;;;59.60;38.83;;;;;;;18.95;100.00;100345.62;2165446;80;21067;-71
2022/08/24 01:24:23;;;;;;;61.75;39.40;;;;;;;18.95;100.00;100349.66;2165059;80;21094;-71
2022/08/24 01:27:25;;;;;;;60.98;36.28;;;;;;;18.96;100.00;100349.94;2170539;80;21038;-72
2022/08/24 01:30:28;;;;;;;69.80;39.55;;;;;;;18.97;100.00;100347.55;2165665;80;20967;-72
2022/08/24 01:33:31;;;;;;;71.45;40.90;;;;;;;18.99;100.00;100339.28;2157800;80;21050;-72
2022/08/24 01:36:56;;;;;;;72.03;40.12;;;;;;;19.01;100.00;100335.86;2163061;80;21064;-72
2022/08/24 01:40:00;;;;;;;77.10;42.25;;;;;;;19.01;100.00;100334.52;2168693;80;21083;-71
2022/08/24 01:43:05;;;;;;;73.80;40.23;;;;;;;19.02;100.00;100340.19;2127576;81;21055;-71
2022/08/24 01:46:07;;;;;;;74.82;40.50;;;;;;;19.03;100.00;100345.86;2139896;82;21572;-70
2022/08/24 01:49:09;;;;;;;77.72;41.13;;;;;;;19.04;100.00;100344.84;2135426;82;21537;-71
2022/08/24 01:52:15;;;;;;;67.95;40.70;;;;;;;19.04;100.00;100350.22;2145021;82;21195;-72
2022/08/24 01:55:18;;;;;;;85.30;41.37;;;;;;;19.03;100.00;100345.36;2158539;80;21020;-72
2022/08/24 01:58:19;;;;;;;72.62;42.27;;;;;;;19.02;100.00;100344.22;2147357;80;21049;-72
2022/08/24 02:01:20;;;;;;;70.45;41.15;;;;;;;19.03;100.00;100346.70;2160733;80;21034;-71
2022/08/24 02:04:22;;;;;;;90.77;44.25;;;;;;;19.03;100.00;100348.55;2173382;80;21121;-70
2022/08/24 02:07:24;;;;;;;84.28;43.52;;;;;;;19.04;100.00;100351.03;2168097;80;21014;-71
2022/08/24 02:10:27;;;;;;;72.32;41.23;;;;;;;19.06;100.00;100355.36;2164540;80;21045;-71
2022/08/24 02:13:29;;;;;;;80.65;43.23;;;;;;;19.06;100.00;100357.52;2147580;82;20988;-72
2022/08/24 02:16:31;;;;;;;96.85;45.20;;;;;;;19.07;100.00;100363.75;2147049;82;21062;-72
2022/08/24 02:19:32;;;;;;;81.97;43.15;;;;;;;19.07;100.00;100365.91;2137846;81;21484;-71
2022/08/24 02:22:33;;;;;;;77.10;42.67;;;;;;;19.07;100.00;100371.30;2148192;80;21522;-71
2022/08/24 02:25:35;;;;;;;75.87;43.98;;;;;;;19.08;100.00;100378.84;2123397;80;21590;-72
2022/08/24 02:28:37;;;;;;;75.55;42.80;;;;;;;19.07;100.00;100383.39;2171275;80;21436;-71
2022/08/24 02:31:38;;;;;;;71.37;42.53;;;;;;;19.09;100.00;100396.11;2156737;80;21426;-70
2022/08/24 02:34:40;;;;;;;86.82;43.50;;;;;;;19.09;100.00;100392.08;2157945;80;21116;-71
2022/08/24 02:37:42;;;;;;;72.37;41.00;;;;;;;19.09;100.00;100399.30;2170013;80;21031;-72
2022/08/24 02:40:44;;;;;;;67.30;41.95;;;;;;;19.08;100.00;100400.34;2160071;80;21058;-72
2022/08/24 02:43:45;;;;;;;62.55;40.95;;;;;;;19.10;100.00;100400.97;2166141;80;21003;-71
2022/08/24 02:46:47;;;;;;;67.50;41.60;;;;;;;19.08;100.00;100400.34;2162792;80;21071;-72
2022/08/24 02:49:48;;;;;;;69.92;42.60;;;;;;;19.07;100.00;100398.19;2163747;80;21578;-71
2022/08/24 02:52:49;;;;;;;64.75;40.85;;;;;;;19.06;100.00;100397.05;2173420;80;21023;-72
2022/08/24 02:55:50;;;;;;;73.95;41.28;;;;;;;19.05;100.00;100393.53;2162711;80;21039;-71
2022/08/24 02:58:52;;;;;;;62.93;40.12;;;;;;;19.06;100.00;100397.05;2171749;80;20993;-71
2022/08/24 03:02:03;;;;;;;72.45;41.83;;;;;;;19.04;100.00;100402.66;2160975;80;20998;-72
2022/08/24 03:05:07;;;;;;;58.98;40.40;;;;;;;19.03;100.00;100400.98;2167561;80;21082;-71
2022/08/24 03:08:09;;;;;;;59.50;39.38;;;;;;;19.02;100.00;100404.72;2164481;80;20998;-71
2022/08/24 03:11:11;;;;;;;64.95;40.95;;;;;;;19.01;100.00;100403.09;2167040;80;20999;-71
2022/08/24 03:14:13;;;;;;;55.60;39.53;;;;;;;19.00;100.00;100399.55;2159650;80;21009;-71
2022/08/24 03:17:17;;;;;;;63.00;39.55;;;;;;;19.01;100.00;100407.13;2161282;80;21478;-71
2022/08/24 03:20:22;;;;;;;55.75;38.73;;;;;;;19.04;100.00;100406.69;2163032;80;20965;-72
2022/08/24 03:23:28;;;;;;;62.90;37.95;;;;;;;19.06;100.00;100413.17;2164004;80;21000;-74
2022/08/24 03:26:28;;;;;;;56.40;37.60;;;;;;;19.07;100.00;100412.98;2159035;80;21483;-72
2022/08/24 03:29:32;;;;;;;57.38;38.25;;;;;;;19.06;100.00;100412.66;2164578;80;21557;-72
2022/08/24 03:32:33;;;;;;;57.45;36.58;;;;;;;19.07;100.00;100421.05;2163197;80;21078;-72
2022/08/24 03:35:35;;;;;;;55.10;38.10;;;;;;;19.08;100.00;100421.34;2168144;80;21069;-72
2022/08/24 03:38:36;;;;;;;64.62;39.15;;;;;;;19.10;100.00;100426.52;2135852;80;20949;-72
2022/08/24 03:41:37;;;;;;;61.63;38.85;;;;;;;19.10;100.00;100431.37;2160917;80;21010;-72
2022/08/24 03:44:40;;;;;;;65.10;38.80;;;;;;;19.09;100.00;100430.23;2152123;80;21486;-72
2022/08/24 03:47:44;;;;;;;56.28;38.80;;;;;;;19.10;100.00;100433.23;2163827;80;21073;-72
2022/08/24 03:50:45;;;;;;;49.73;35.63;;;;;;;19.08;100.00;100438.81;2168651;80;21010;-72
2022/08/24 03:53:48;;;;;;;53.87;36.25;;;;;;;19.08;100.00;100440.16;2128120;80;21054;-72
2022/08/24 03:56:50;;;;;;;55.70;38.02;;;;;;;19.09;100.00;100435.11;2161851;80;21791;-71
2022/08/24 03:59:54;;;;;;;55.75;36.30;;;;;;;19.10;100.00;100439.96;2160669;80;20996;-74
2022/08/24 04:02:55;;;;;;;62.75;35.90;;;;;;;19.10;100.00;100438.62;2161508;80;21051;-72
2022/08/24 04:05:57;;;;;;;57.23;38.10;;;;;;;19.11;100.00;100433.53;2176034;80;21031;-72
2022/08/24 04:09:00;;;;;;;63.02;39.18;;;;;;;19.12;100.00;100440.05;2172192;80;21106;-72
2022/08/24 04:12:04;;;;;;;64.35;38.98;;;;;;;19.13;100.00;100440.34;2158361;80;21013;-73
2022/08/24 04:15:09;;;;;;;57.30;37.95;;;;;;;19.15;100.00;100445.52;2168803;80;21178;-72
2022/08/24 04:18:11;;;;;;;58.42;36.73;;;;;;;19.13;100.00;100439.53;2149813;80;21080;-72
2022/08/24 04:21:30;;;;;;;55.00;35.55;;;;;;;19.12;100.00;100443.23;2181030;80;20973;-73
2022/08/24 04:24:33;;;;;;;51.77;35.58;;;;;;;19.09;100.00;100445.87;2144756;80;21567;-71
2022/08/24 04:27:34;;;;;;;52.13;36.00;;;;;;;19.08;100.00;100449.58;2165877;80;21519;-72
2022/08/24 04:30:41;;;;;;;50.30;36.05;;;;;;;19.10;100.00;100446.16;2143670;80;21486;-71
2022/08/24 04:33:54;;;;;;;53.08;34.98;;;;;;;19.10;100.00;100447.50;2159665;80;22253;-71
2022/08/24 04:36:56;;;;;;;49.58;34.35;;;;;;;19.09;100.00;100444.52;2163546;80;21061;-72
2022/08/24 04:39:57;;;;;;;47.58;33.83;;;;;;;19.10;100.00;100444.81;2159457;80;21050;-71
2022/08/24 04:43:05;;;;;;;45.55;32.60;;;;;;;19.09;100.00;100448.55;2159473;80;22167;-70
2022/08/24 04:46:08;;;;;;;49.00;34.25;;;;;;;19.09;100.00;100447.21;2153245;80;20990;-70
2022/08/24 04:49:16;;;;;;;53.48;32.45;;;;;;;19.10;100.00;100450.20;2164004;80;21050;-73
2022/08/24 04:52:45;;;;;;;;;;;;;;;;;;;;;
2022/08/24 04:55:49;;;;;;;41.63;31.40;;;;;;;19.10;100.00;100451.54;2149357;80;20968;-71
2022/08/24 04:59:01;;;;;;;42.67;31.30;;;;;;;19.10;100.00;100448.84;2147215;80;21648;-71
2022/08/24 05:02:06;;;;;;;42.53;30.85;;;;;;;19.14;100.00;100451.92;2169719;80;21081;-71
2022/08/24 05:05:10;;;;;;;40.48;30.48;;;;;;;19.14;100.00;100451.40;2157059;80;21019;-71
2022/08/24 05:08:18;;;;;;;42.20;31.40;;;;;;;19.17;100.00;100460.91;2141827;82;21520;-73
2022/08/24 05:11:28;;;;;;;39.35;30.82;;;;;;;19.18;100.00;100463.92;2158402;80;21121;-67
2022/08/24 05:14:34;;;;;;;38.23;30.55;;;;;;;19.18;100.00;100463.92;2140641;80;20999;-72
2022/08/24 05:17:57;;;;;;;46.50;32.53;;;;;;;19.19;100.00;100459.66;2166752;80;21063;-74
2022/08/24 05:20:55;;;;;;;41.53;30.15;;;;;;;19.19;100.00;100454.27;2157376;80;22553;-71
2022/08/24 05:24:05;;;;;;;41.90;30.52;;;;;;;19.24;100.00;100457.67;2165381;80;20972;-70
2022/08/24 05:27:08;;;;;;;44.75;30.32;;;;;;;19.25;100.00;100456.10;2160610;80;21753;-71
2022/08/24 05:30:13;;;;;;;44.03;31.57;;;;;;;19.29;100.00;100455.66;2170880;80;22116;-73
2022/08/24 05:33:16;;;;;;;41.45;31.05;;;;;;;19.31;100.00;100451.72;2170396;80;21055;-73
2022/08/24 05:36:31;;;;;;;42.20;31.00;;;;;;;19.36;100.00;100447.05;2163978;80;21030;-71
2022/08/24 05:39:32;;;;;;;45.23;31.50;;;;;;;19.37;100.00;100452.23;2164250;80;21091;-72
2022/08/24 05:42:36;;;;;;;42.03;30.60;;;;;;;19.42;100.00;100459.63;2166314;80;21509;-71
2022/08/24 05:45:43;;;;;;;39.10;29.85;;;;;;;19.45;100.00;100461.89;2135092;80;21592;-71
2022/08/24 05:48:45;;;;;;;41.20;30.50;;;;;;;19.48;100.00;100456.06;2161510;80;21038;-71
2022/08/24 05:51:48;;;;;;;39.85;30.30;;;;;;;19.49;100.00;100461.77;2157673;80;21050;-70
2022/08/24 05:54:54;;;;;;;37.65;29.00;;;;;;;19.52;100.00;100451.09;2156777;80;21043;-70
2022/08/24 05:58:16;;;;;;;36.28;28.62;;;;;;;19.57;100.00;100448.55;2170095;80;21145;-70
2022/08/24 06:01:19;;;;;;;39.92;28.75;;;;;;;19.61;100.00;100447.91;2163987;80;21355;-70
2022/08/24 06:04:21;;;;;;;36.90;27.82;;;;;;;19.69;100.00;100449.55;2167370;80;21076;-70
2022/08/24 06:07:23;;;;;;;37.13;27.93;;;;;;;19.75;100.00;100459.97;2143519;81;21566;-70
2022/08/24 06:10:26;;;;;;;37.73;28.17;;;;;;;19.78;100.00;100456.31;2145705;82;21086;-72
2022/08/24 06:13:52;;;;;;;33.00;25.70;;;;;;;19.81;100.00;100457.74;2147886;80;21042;-70
2022/08/24 06:16:57;;;;;;;30.43;25.10;;;;;;;19.83;100.00;100454.31;2165427;80;21043;-71
2022/08/24 06:19:57;;;;;;;33.48;25.20;;;;;;;19.89;100.00;100465.02;2163288;80;21024;-71
2022/08/24 06:22:59;;;;;;;33.67;24.82;;;;;;;19.91;100.00;100462.94;2166423;80;21040;-70
2022/08/24 06:29:33;;;;;;;32.13;23.02;;;;;;;20.25;100.00;100459.96;2163870;80;21091;-71
2022/08/24 06:32:37;;;;;;;27.30;21.70;;;;;;;20.97;100.00;100460.21;2172535;80;21083;-73
2022/08/24 06:35:39;;;;;;;23.52;20.92;;;;;;;21.64;100.00;100459.61;2156980;80;21468;-70
2022/08/24 06:38:42;;;;;;;22.65;18.45;;;;;;;22.05;100.00;100452.52;2166484;80;21000;-71
2022/08/24 06:41:59;;;;;;;20.00;17.80;;;;;;;22.41;100.00;100446.58;2170581;80;21008;-72
2022/08/24 06:45:20;;;;;;;17.92;16.10;;;;;;;22.90;100.00;100451.67;2164243;80;21573;-71
2022/08/24 06:48:29;;;;;;;17.17;15.40;;;;;;;23.38;100.00;100450.45;2157384;80;21472;-72
2022/08/24 06:51:32;;;;;;;15.72;13.32;;;;;;;23.76;100.00;100457.08;2160356;80;21444;-71
2022/08/24 06:54:35;;;;;;;17.35;14.35;;;;;;;23.90;98.19;100450.27;2167351;80;21346;-71
2022/08/24 06:57:38;;;;;;;13.45;12.07;;;;;;;23.97;99.07;100451.48;2168645;80;21043;-72
2022/08/24 07:00:40;;;;;;;12.73;10.38;;;;;;;24.24;98.45;100451.59;2162440;80;21018;-71
2022/08/24 07:03:53;;;;;;;10.82;9.58;;;;;;;24.63;97.30;100452.97;2166686;80;20999;-72
2022/08/24 07:06:56;;;;;;;9.68;8.30;;;;;;;24.87;93.86;100447.59;2076026;80;21568;-71
2022/08/24 07:10:22;;;;;;;10.05;8.65;;;;;;;24.69;92.12;100448.70;2161704;80;21090;-71
2022/08/24 07:13:12;;;;;;;13.00;9.35;;;;;;;24.55;90.91;100452.86;2140946;80;21078;-72
2022/08/24 07:16:32;;;;;;;;;;;;;;;;;;;;;
2022/08/24 07:19:27;;;;;;;9.95;8.65;;;;;;;24.51;89.22;100447.67;2165613;80;21110;-72
2022/08/24 07:22:31;;;;;;;10.70;8.63;;;;;;;24.58;89.58;100449.13;2168005;80;20960;-71
2022/08/24 07:25:32;;;;;;;10.00;9.00;;;;;;;24.95;89.55;100454.47;2165071;80;21094;-71
2022/08/24 07:28:59;;;;;;;;;;;;;;;;;;;;;
2022/08/24 07:31:50;;;;;;;11.12;9.05;;;;;;;24.88;86.14;100457.36;2150013;80;21099;-70
2022/08/24 07:34:55;;;;;;;8.73;7.92;;;;;;;24.67;85.63;100463.08;2168690;80;21059;-71
2022/08/24 07:37:59;;;;;;;8.68;7.85;;;;;;;24.88;86.98;100466.04;2165121;80;21024;-71
2022/08/24 07:41:03;;;;;;;10.53;8.83;;;;;;;25.23;84.70;100463.77;2157335;80;21086;-72
2022/08/24 07:44:04;;;;;;;11.10;8.43;;;;;;;25.31;83.21;100467.89;2168075;80;20985;-72
2022/08/24 07:47:07;;;;;;;9.50;8.63;;;;;;;25.72;83.18;100469.66;2169208;80;21114;-71
2022/08/24 07:50:18;;;;;;;10.78;9.28;;;;;;;25.77;81.87;100467.53;2158938;80;21008;-71
2022/08/24 07:53:24;;;;;;;10.30;9.30;;;;;;;25.25;80.89;100478.43;2155033;80;21073;-73
2022/08/24 07:56:31;;;;;;;12.80;9.53;;;;;;;25.29;80.72;100479.58;2163484;80;21092;-73
2022/08/24 07:59:49;;;;;;;10.08;9.08;;;;;;;25.39;79.86;100487.81;2146920;80;21102;-73
2022/08/24 08:02:45;;;;;;;10.13;9.15;;;;;;;25.17;80.22;100490.59;2141222;82;20993;-71
2022/08/24 08:05:48;;;;;;;13.20;10.13;;;;;;;25.00;80.50;100486.56;2148693;81;21051;-72
2022/08/24 08:08:50;;;;;;;11.28;9.58;;;;;;;24.76;79.71;100481.09;2141029;81;21127;-71
2022/08/24 08:11:52;;;;;;;12.80;11.50;;;;;;;24.51;79.98;100491.06;2138354;82;21013;-71
2022/08/24 08:14:56;;;;;;;11.73;10.08;;;;;;;24.29;80.20;100492.34;2141011;81;21119;-70
2022/08/24 08:17:58;;;;;;;12.03;10.82;;;;;;;24.11;80.61;100488.83;2141827;82;21059;-71
2022/08/24 08:24:13;;;;;;;13.98;10.70;;;;;;;23.88;80.06;100486.30;2136981;82;21100;-70
2022/08/24 08:24:16;;;;;;;13.10;10.60;;;;;;;23.73;80.66;100492.25;2142394;82;21010;-71
2022/08/24 08:27:23;;;;;;;14.00;12.60;;;;;;;23.65;81.31;100502.95;2142670;82;20967;-70
2022/08/24 08:30:28;;;;;;;16.65;13.88;;;;;;;23.54;80.95;100506.54;2128108;82;21045;-71
2022/08/24 08:33:30;;;;;;;16.57;13.50;;;;;;;23.39;81.75;100508.95;2142932;81;21517;-70
2022/08/24 08:36:41;;;;;;;15.45;13.70;;;;;;;23.26;81.90;100512.23;2146126;81;21662;-70
2022/08/24 08:39:46;;;;;;;15.72;14.13;;;;;;;23.18;82.19;100516.68;2144029;82;21032;-72
2022/08/24 08:43:30;;;;;;;18.30;15.18;;;;;;;23.05;82.13;100518.30;2158990;80;20978;-70
2022/08/24 08:47:10;;;;;;;16.85;15.05;;;;;;;22.99;82.66;100530.91;2160952;80;21004;-72
2022/08/24 08:51:16;;;;;;;18.40;14.55;;;;;;;22.96;82.91;100534.63;2169357;80;21014;-69
2022/08/24 08:54:04;;;;;;;19.02;16.93;;;;;;;22.97;83.28;100533.02;2137859;80;21499;-70
2022/08/24 08:57:47;;;;;;;20.30;16.32;;;;;;;23.34;83.65;100529.15;2161923;80;21349;-75
2022/08/24 09:01:55;;;;;;;;;;;;;;;;;;;;;
2022/08/24 09:05:19;;;;;;;18.48;14.45;;;;;;;24.27;81.41;100539.20;2073303;80;21433;-71
2022/08/24 09:12:13;;;;;;;13.53;12.20;;;;;;;24.71;80.00;100535.29;2135886;80;21377;-71
2022/08/24 09:15:54;;;;;;;14.25;12.75;;;;;;;24.74;79.28;100542.92;2115805;80;21082;-71
2022/08/24 09:19:30;;;;;;;;;;;;;;;;;;;;;
2022/08/24 09:22:26;;;;;;;14.73;12.70;;;;;;;24.65;78.47;100541.72;2157241;80;21060;-72
2022/08/24 09:25:57;;;;;;;15.03;12.80;;;;;;;24.70;78.12;100536.37;2138279;80;20988;-70
2022/08/24 09:29:17;;;;;;;15.65;13.22;;;;;;;24.71;78.66;100535.29;2161280;80;21122;-71
2022/08/24 09:32:51;;;;;;;15.70;13.70;;;;;;;24.81;77.48;100535.44;2045262;85;21604;-72
2022/08/24 09:39:37;;;;;;;13.98;12.00;;;;;;;24.63;77.66;100542.50;2030578;80;21046;-72
2022/08/24 09:43:20;;;;;;;13.35;11.80;;;;;;;24.61;78.24;100546.83;2171964;80;21013;-72
2022/08/24 09:46:44;;;;;;;15.83;12.18;;;;;;;24.68;78.34;100547.45;2139435;80;21510;-71
2022/08/24 09:50:36;;;;;;;12.98;11.53;;;;;;;24.75;77.94;100548.63;2155607;80;21009;-70
2022/08/24 09:54:17;;;;;;;14.85;13.03;;;;;;;24.85;78.24;100552.84;2165762;80;20976;-72
2022/08/24 09:58:12;;;;;;;18.20;13.10;;;;;;;24.91;77.76;100552.37;2168922;80;21475;-72
2022/08/24 10:02:07;;;;;;;14.70;11.75;;;;;;;24.91;77.81;100546.95;2156000;80;22225;-72
2022/08/24 10:05:48;;;;;;;18.12;12.70;;;;;;;24.96;77.70;100555.98;2132020;82;21192;-71
2022/08/24 10:09:14;;;;;;;15.88;12.63;;;;;;;24.89;77.23;100547.22;2133337;80;21049;-71
2022/08/24 10:12:42;;;;;;;16.75;14.00;;;;;;;24.87;77.30;100549.35;2164582;80;21044;-76
2022/08/24 10:16:06;;;;;;;15.00;12.55;;;;;;;24.95;77.32;100552.18;2167878;80;21010;-73
2022/08/24 10:20:05;;;;;;;16.02;11.70;;;;;;;24.92;77.12;100548.58;2139912;80;21098;-71
2022/08/24 10:23:36;;;;;;;18.70;12.80;;;;;;;24.93;77.22;100546.98;2162003;80;21085;-71
2022/08/24 10:27:02;;;;;;;15.00;12.25;;;;;;;25.05;76.85;100548.22;2162533;80;20944;-72
2022/08/24 10:30:34;;;;;;;14.15;12.33;;;;;;;25.16;76.68;100543.77;2155217;80;21083;-71
2022/08/24 10:34:19;;;;;;;14.23;10.82;;;;;;;25.38;76.85;100545.94;2155639;80;21019;-73
2022/08/24 10:41:27;;;;;;;16.50;11.65;;;;;;;25.83;76.18;100539.91;2066565;83;21088;-73
2022/08/24 10:44:55;;;;;;;15.25;11.75;;;;;;;25.77;74.85;100536.29;2053047;84;21650;-72
2022/08/24 10:48:43;;;;;;;17.95;11.95;;;;;;;25.64;74.79;100535.34;2077990;83;21047;-70
2022/08/24 10:52:20;;;;;;;13.72;10.93;;;;;;;25.72;75.49;100530.80;2095624;83;21568;-71
2022/08/24 10:55:36;;;;;;;16.82;12.07;;;;;;;25.92;75.37;100534.27;2076119;83;21011;-74
2022/08/24 10:58:57;;;;;;;21.07;11.65;;;;;;;26.04;75.13;100534.91;2076030;83;21022;-71
2022/08/24 11:02:35;;;;;;;15.23;11.60;;;;;;;26.12;74.38;100533.62;2085402;83;21549;-72
2022/08/24 11:05:50;;;;;;;12.78;11.35;;;;;;;26.11;73.96;100541.51;2156517;80;21025;-71
2022/08/24 11:09:09;;;;;;;15.00;11.60;;;;;;;26.08;74.08;100543.39;2133576;80;21098;-71
2022/08/24 11:12:47;;;;;;;11.83;10.63;;;;;;;26.04;73.56;100553.94;2163472;80;21060;-71
2022/08/24 11:16:05;;;;;;;16.37;12.13;;;;;;;25.91;73.72;100557.92;2144288;80;21407;-71
2022/08/24 11:19:39;;;;;;;15.08;12.00;;;;;;;25.97;73.93;100553.89;2165973;80;21585;-71
2022/08/24 11:23:06;;;;;;;14.80;12.98;;;;;;;25.99;73.94;100557.16;2157010;80;21053;-71
2022/08/24 11:26:21;;;;;;;16.23;12.45;;;;;;;25.86;72.85;100557.87;2130612;80;20943;-72
2022/08/24 11:29:31;;;;;;;17.98;12.37;;;;;;;25.66;73.28;100561.72;2169949;80;21042;-70
2022/08/24 11:33:17;;;;;;;15.88;12.60;;;;;;;25.63;74.20;100558.16;2168256;80;21533;-72
2022/08/24 11:36:32;;;;;;;18.75;13.60;;;;;;;25.62;73.43;100558.70;2161576;80;21079;-72
2022/08/24 11:39:47;;;;;;;22.55;13.60;;;;;;;25.63;74.13;100558.16;2160100;80;21094;-70
2022/08/24 11:43:25;;;;;;;17.60;13.88;;;;;;;25.43;73.38;100563.66;2124461;80;21083;-71
2022/08/24 11:46:50;;;;;;;18.32;13.22;;;;;;;25.32;73.70;100559.18;2151673;80;21073;-72
2022/08/24 11:50:19;;;;;;;20.55;14.85;;;;;;;25.27;74.01;100564.55;2163888;80;21106;-71
2022/08/24 11:54:07;;;;;;;16.95;13.85;;;;;;;25.17;73.70;100572.05;2156732;80;21059;-71
2022/08/24 12:00:41;;;;;;;17.70;14.40;;;;;;;25.01;74.47;100569.63;2144993;80;21125;-73
2022/08/24 12:04:12;;;;;;;18.70;14.33;;;;;;;25.03;74.59;100572.92;2170204;80;20983;-71
2022/08/24 12:07:48;;;;;;;19.23;14.73;;;;;;;25.08;74.78;100570.78;2168615;80;21076;-72
2022/08/24 12:11:22;;;;;;;19.05;15.45;;;;;;;25.19;74.72;100567.70;2162172;80;20989;-71
2022/08/24 12:14:59;;;;;;;;;;;;;;;;;;;;;
2022/08/24 12:18:32;;;;;;;19.60;13.28;;;;;;;25.57;73.85;100570.05;2143330;80;21018;-71
2022/08/24 12:21:49;;;;;;;16.50;13.53;;;;;;;25.51;72.34;100571.89;2140420;82;21044;-70
2022/08/24 12:25:01;;;;;;;15.40;13.50;;;;;;;25.41;73.14;100575.30;2161939;80;21097;-72
2022/08/24 12:28:09;;;;;;;19.75;14.45;;;;;;;25.35;73.12;100576.32;2154160;80;21560;-72
2022/08/24 12:31:24;;;;;;;17.80;12.58;;;;;;;25.39;72.99;100579.34;2174033;80;21000;-72
2022/08/24 12:34:36;;;;;;;18.65;12.63;;;;;;;25.27;73.15;100581.66;2171140;80;22199;-71
2022/08/24 12:37:52;;;;;;;17.70;12.58;;;;;;;25.20;72.92;100585.11;2145430;80;20984;-71
2022/08/24 12:41:10;;;;;;;18.23;12.68;;;;;;;25.15;73.32;100575.54;2165143;80;21030;-71
2022/08/24 12:44:12;;;;;;;17.75;12.50;;;;;;;25.13;73.42;100580.36;2165038;80;21006;-71
2022/08/24 12:47:31;;;;;;;18.32;12.10;;;;;;;25.04;73.17;100578.63;2132848;80;21561;-71
2022/08/24 12:51:00;;;;;;;17.25;11.60;;;;;;;24.99;72.80;100576.37;2125074;80;20973;-71
2022/08/24 12:54:36;;;;;;;18.90;11.35;;;;;;;24.96;72.55;100570.09;2171986;80;21030;-70
2022/08/24 12:58:12;;;;;;;15.95;11.25;;;;;;;24.87;72.63;100575.67;2159346;79;21057;-71
2022/08/24 13:01:21;;;;;;;21.80;12.35;;;;;;;24.83;72.29;100569.91;2140984;80;21008;-70
2022/08/24 13:04:58;;;;;;;18.40;11.28;;;;;;;24.93;72.71;100567.34;2170919;80;22421;-70
2022/08/24 13:08:15;;;;;;;22.05;11.70;;;;;;;24.94;72.78;100564.91;2171256;80;21056;-71
2022/08/24 13:11:37;;;;;;;17.37;11.78;;;;;;;25.05;72.27;100563.15;2117627;80;20980;-71
2022/08/24 13:14:38;;;;;;;17.55;12.18;;;;;;;25.04;71.97;100562.33;2159883;80;20983;-70
2022/08/24 13:17:41;;;;;;;19.12;12.23;;;;;;;24.92;71.71;100561.64;2164614;80;21324;-70
2022/08/24 13:20:50;;;;;;;22.48;12.20;;;;;;;24.90;71.54;100572.45;2162795;80;21025;-71
2022/08/24 13:24:44;;;;;;;19.60;12.00;;;;;;;24.58;71.47;100565.78;2162797;80;21011;-71
2022/08/24 13:31:31;;;;;;;18.62;12.18;;;;;;;24.71;73.38;100565.13;2150195;80;21058;-70
2022/08/24 13:34:44;;;;;;;19.77;12.10;;;;;;;25.02;73.04;100567.19;2156125;80;21616;-72
2022/08/24 13:38:13;;;;;;;14.75;11.70;;;;;;;25.23;72.70;100564.78;2164142;80;21527;-73
2022/08/24 13:42:10;;;;;;;;;;;;;;;;;;;;;
2022/08/24 13:45:52;;;;;;;;;;;;;;;;;;;;;
2022/08/24 13:48:54;;;;;;;19.98;11.48;;;;;;;25.44;71.61;100557.67;2150867;80;21531;-72
2022/08/24 13:56:14;;;;;;;16.77;10.05;;;;;;;25.58;70.81;100556.20;2123353;80;21058;-72
2022/08/24 14:03:27;;;;;;;18.23;10.70;;;;;;;25.82;70.60;100554.01;2127188;82;21517;-73
2022/08/24 14:06:45;;;;;;;15.35;9.28;;;;;;;25.87;70.65;100545.91;2134292;80;21614;-73
2022/08/24 14:10:29;;;;;;;20.80;9.55;;;;;;;25.97;70.10;100551.98;2131911;80;21069;-70
2022/08/24 14:14:13;;;;;;;15.95;8.40;;;;;;;26.01;69.68;100553.64;2162345;80;21009;-71
2022/08/24 14:17:52;;;;;;;14.35;8.23;;;;;;;26.08;69.37;100551.00;2157968;80;21056;-70
2022/08/24 14:21:13;;;;;;;17.55;9.08;;;;;;;26.03;68.65;100545.52;2171708;80;21089;-73
2022/08/24 14:24:46;;;;;;;19.05;8.40;;;;;;;26.08;68.55;100542.03;2169868;80;21097;-73
2022/08/24 14:28:07;;;;;;;18.50;8.78;;;;;;;26.19;68.13;100542.94;2171149;80;21039;-71
2022/08/24 14:31:18;;;;;;;20.10;7.92;;;;;;;26.22;67.80;100537.78;2161559;80;21053;-71
2022/08/24 14:34:32;;;;;;;;;;;;;;;26.36;67.98;100539.52;2166345;80;21514;-71
2022/08/24 14:37:55;;;;;;;24.27;8.95;;;;;;;26.41;67.33;100534.64;2169050;80;20885;-70
2022/08/24 14:41:24;;;;;;;14.95;8.50;;;;;;;26.34;66.55;100534.33;2134143;81;21126;-70
2022/08/24 14:44:54;;;;;;;21.07;8.85;;;;;;;26.25;65.90;100527.75;2143017;81;21166;-71
2022/08/24 14:48:38;;;;;;;17.27;8.48;;;;;;;26.22;66.64;100532.89;2139219;82;21102;-71
2022/08/24 14:52:32;;;;;;;21.68;8.83;;;;;;;26.34;66.88;100522.64;2129085;81;21263;-72
2022/08/24 14:59:13;;;;;;;19.17;8.75;;;;;;;26.21;66.09;100510.30;2121502;80;21004;-71
2022/08/24 15:02:44;;;;;;;;;;;;;;;;;;;;;
2022/08/24 15:05:58;;;;;;;24.00;9.95;;;;;;;26.04;66.22;100515.06;2161281;80;21049;-71
2022/08/24 15:09:49;;;;;;;15.77;9.77;;;;;;;26.02;66.71;100509.09;2170230;80;21053;-71
2022/08/24 15:12:50;;;;;;;22.65;10.13;;;;;;;26.03;67.36;100506.64;2166090;80;21050;-71
2022/08/24 15:16:36;;;;;;;25.15;11.12;;;;;;;26.06;67.66;100504.20;2130341;80;21038;-71
2022/08/24 15:20:13;;;;;;;19.77;11.25;;;;;;;26.02;68.11;100507.73;2168982;80;21039;-72
2022/08/24 15:24:15;;;;;;;19.07;12.15;;;;;;;25.94;68.66;100511.19;2162892;80;21007;-71
2022/08/24 15:27:49;;;;;;;21.62;11.65;;;;;;;25.87;68.77;100519.27;2142834;80;21008;-71
2022/08/24 15:30:44;;;;;;;16.52;11.83;;;;;;;25.73;69.33;100516.13;2154227;80;21503;-70